createdAt,value
2022-09-25T00:00:55.404Z,104.80
2022-09-25T00:03:25.966Z,110.17
2022-09-25T00:05:55.913Z,106.40
2022-09-25T00:08:23.791Z,111.47
2022-09-25T00:10:52.533Z,108.67
2022-09-25T00:13:22.073Z,107.37
2022-09-25T00:15:51.450Z,108.87
2022-09-25T00:18:41.378Z,109.87
2022-09-25T00:21:12.534Z,107.40
2022-09-25T00:23:41.328Z,107.77
2022-09-25T00:26:09.858Z,109.93
2022-09-25T00:28:39.088Z,116.53
2022-09-25T00:31:08.400Z,108.90
2022-09-25T00:33:36.941Z,107.30
2022-09-25T00:36:06.273Z,106.70
2022-09-25T00:38:37.157Z,112.30
2022-09-25T00:41:07.180Z,108.50
2022-09-25T00:43:37.684Z,109.70
2022-09-25T00:46:10.024Z,115.80
2022-09-25T00:48:39.038Z,107.67
2022-09-25T00:51:07.334Z,110.63
2022-09-25T00:53:40.787Z,108.13
2022-09-25T00:56:11.013Z,105.30
2022-09-25T00:58:39.682Z,108.37
2022-09-25T01:01:08.783Z,110.63
2022-09-25T01:03:37.128Z,110.70
2022-09-25T01:06:05.284Z,110.37
2022-09-25T01:08:34.168Z,107.83
2022-09-25T01:11:03.458Z,108.90
2022-09-25T01:13:31.409Z,107.27
2022-09-25T01:16:04.490Z,103.37
2022-09-25T01:18:43.459Z,104.80
2022-09-25T01:21:31.093Z,109.40
2022-09-25T01:24:25.337Z,107.17
2022-09-25T01:27:34.820Z,107.90
2022-09-25T01:30:07.971Z,106.87
2022-09-25T01:32:41.958Z,105.67
2022-09-25T01:35:16.791Z,109.13
2022-09-25T01:37:47.426Z,104.83
2022-09-25T01:40:22.015Z,108.07
2022-09-25T01:42:53.606Z,117.90
2022-09-25T01:45:25.161Z,109.67
2022-09-25T01:47:54.153Z,114.47
2022-09-25T01:50:26.355Z,115.83
2022-09-25T01:52:58.045Z,115.87
2022-09-25T01:55:29.127Z,115.57
2022-09-25T01:58:00.745Z,114.90
2022-09-25T02:00:30.082Z,111.90
2022-09-25T02:03:00.704Z,114.13
2022-09-25T02:05:32.053Z,123.30
2022-09-25T02:08:02.815Z,115.97
2022-09-25T02:10:35.458Z,108.73
2022-09-25T02:13:09.191Z,107.77
2022-09-25T02:15:41.427Z,111.57
2022-09-25T02:18:28.478Z,110.30
2022-09-25T02:21:01.062Z,113.00
2022-09-25T02:23:36.374Z,110.87
2022-09-25T02:26:07.400Z,105.97
2022-09-25T02:28:35.500Z,109.77
2022-09-25T02:31:08.169Z,111.90
2022-09-25T02:33:36.287Z,108.67
2022-09-25T02:36:05.522Z,108.87
2022-09-25T02:38:34.240Z,113.97
2022-09-25T02:41:06.440Z,109.67
2022-09-25T02:43:39.575Z,103.07
2022-09-25T02:46:12.531Z,103.67
2022-09-25T02:48:49.515Z,107.93
2022-09-25T02:51:22.333Z,110.17
2022-09-25T02:53:54.100Z,103.10
2022-09-25T02:56:27.609Z,102.53
2022-09-25T02:58:58.126Z,100.97
2022-09-25T03:01:29.889Z,102.70
2022-09-25T03:03:59.084Z,103.80
2022-09-25T03:06:27.670Z,105.63
2022-09-25T03:08:57.492Z,102.10
2022-09-25T03:11:27.055Z,109.07
2022-09-25T03:13:59.362Z,107.53
2022-09-25T03:16:34.441Z,105.73
2022-09-25T03:19:02.930Z,104.37
2022-09-25T03:21:30.986Z,104.37
2022-09-25T03:23:58.897Z,103.40
2022-09-25T03:26:27.741Z,110.27
2022-09-25T03:28:55.885Z,107.90
2022-09-25T03:31:24.373Z,103.73
2022-09-25T03:33:53.731Z,101.47
2022-09-25T03:36:23.036Z,103.70
2022-09-25T03:38:52.472Z,110.00
2022-09-25T03:41:22.669Z,108.30
2022-09-25T03:43:52.288Z,107.63
2022-09-25T03:46:23.231Z,108.30
2022-09-25T03:48:53.328Z,112.93
2022-09-25T03:51:21.792Z,107.93
2022-09-25T03:53:50.611Z,112.03
2022-09-25T03:56:20.554Z,118.17
2022-09-25T03:58:49.316Z,115.63
2022-09-25T04:01:19.404Z,116.27
2022-09-25T04:03:48.134Z,115.17
2022-09-25T04:06:19.212Z,117.83
2022-09-25T04:08:48.290Z,116.87
2022-09-25T04:11:16.937Z,106.47
2022-09-25T04:13:45.278Z,107.40
2022-09-25T04:16:14.682Z,111.63
2022-09-25T04:18:43.006Z,113.10
2022-09-25T04:21:13.325Z,110.80
2022-09-25T04:23:42.695Z,116.87
2022-09-25T04:26:10.763Z,111.27
2022-09-25T04:28:38.719Z,111.30
2022-09-25T04:31:07.019Z,118.20
2022-09-25T04:33:46.414Z,110.40
2022-09-25T04:36:14.751Z,112.70
2022-09-25T04:38:44.162Z,115.70
2022-09-25T04:41:12.607Z,118.37
2022-09-25T04:43:42.778Z,120.53
2022-09-25T04:46:16.679Z,112.17
2022-09-25T04:48:48.229Z,114.93
2022-09-25T04:51:16.155Z,116.17
2022-09-25T04:53:46.086Z,116.60
2022-09-25T04:56:16.064Z,113.07
2022-09-25T04:58:45.875Z,119.63
2022-09-25T05:01:13.877Z,119.73
2022-09-25T05:03:41.882Z,115.90
2022-09-25T05:06:10.235Z,113.37
2022-09-25T05:08:38.099Z,114.47
2022-09-25T05:11:07.934Z,114.27
2022-09-25T05:13:36.435Z,115.07
2022-09-25T05:16:04.411Z,113.73
2022-09-25T05:18:32.347Z,114.27
2022-09-25T05:21:04.633Z,110.33
2022-09-25T05:23:32.575Z,116.77
2022-09-25T05:26:02.061Z,120.07
2022-09-25T05:28:31.543Z,114.93
2022-09-25T05:31:00.026Z,118.67
2022-09-25T05:33:28.035Z,113.53
2022-09-25T05:35:56.041Z,117.83
2022-09-25T05:38:23.976Z,112.43
2022-09-25T05:40:52.653Z,117.27
2022-09-25T05:43:20.664Z,117.03
2022-09-25T05:45:55.700Z,118.73
2022-09-25T05:48:23.699Z,114.57
2022-09-25T05:50:55.081Z,115.37
2022-09-25T05:53:48.601Z,117.53
2022-09-25T05:56:16.715Z,119.73
2022-09-25T05:58:45.002Z,112.20
2022-09-25T06:01:14.652Z,118.40
2022-09-25T06:03:42.593Z,121.17
2022-09-25T06:06:10.490Z,114.97
2022-09-25T06:08:38.712Z,118.77
2022-09-25T06:11:07.853Z,120.40
2022-09-25T06:13:36.991Z,116.93
2022-09-25T06:16:05.913Z,117.40
2022-09-25T06:18:35.260Z,120.60
2022-09-25T06:21:05.720Z,114.93
2022-09-25T06:23:33.769Z,122.90
2022-09-25T06:26:02.788Z,116.00
2022-09-25T06:28:31.094Z,122.70
2022-09-25T06:31:01.276Z,112.60
2022-09-25T06:33:29.381Z,112.97
2022-09-25T06:35:58.699Z,115.90
2022-09-25T06:38:26.604Z,110.47
2022-09-25T06:40:58.791Z,109.83
2022-09-25T06:43:28.068Z,122.10
2022-09-25T06:45:56.060Z,129.83
2022-09-25T06:48:24.033Z,116.93
2022-09-25T06:50:52.848Z,108.20
2022-09-25T06:53:23.448Z,113.30
2022-09-25T06:55:51.614Z,104.53
2022-09-25T06:58:21.101Z,111.33
2022-09-25T07:00:50.233Z,110.17
2022-09-25T07:03:36.303Z,110.57
2022-09-25T07:06:06.236Z,107.07
2022-09-25T07:08:35.883Z,110.97
2022-09-25T07:11:05.017Z,115.30
2022-09-25T07:13:35.040Z,109.73
2022-09-25T07:16:04.892Z,110.10
2022-09-25T07:18:33.338Z,110.87
2022-09-25T07:21:03.073Z,113.00
2022-09-25T07:23:33.514Z,117.53
2022-09-25T07:26:08.006Z,112.00
2022-09-25T07:28:36.406Z,122.90
2022-09-25T07:31:17.908Z,114.47
2022-09-25T07:33:46.618Z,268.05
2022-09-25T07:36:15.524Z,118.67
2022-09-25T07:38:44.442Z,111.23
2022-09-25T07:41:14.207Z,110.93
2022-09-25T07:43:43.817Z,104.37
2022-09-25T07:46:12.566Z,109.30
2022-09-25T07:48:41.138Z,111.73
2022-09-25T07:51:11.985Z,104.37
2022-09-25T07:53:40.693Z,104.77
2022-09-25T07:56:09.088Z,104.40
2022-09-25T07:58:38.893Z,105.43
2022-09-25T08:01:08.362Z,104.67
2022-09-25T08:03:36.514Z,102.30
2022-09-25T08:06:06.402Z,105.50
2022-09-25T08:08:35.338Z,100.17
2022-09-25T08:11:06.731Z,106.50
2022-09-25T08:13:35.558Z,110.03
2022-09-25T08:16:05.741Z,101.90
2022-09-25T08:18:34.338Z,107.20
2022-09-25T08:21:03.654Z,100.67
2022-09-25T08:23:32.293Z,105.47
2022-09-25T08:26:01.583Z,103.17
2022-09-25T08:28:30.092Z,109.70
2022-09-25T08:30:59.211Z,97.37
2022-09-25T08:33:28.588Z,103.70
2022-09-25T08:35:57.223Z,99.37
2022-09-25T08:38:26.457Z,104.07
2022-09-25T08:40:56.634Z,100.87
2022-09-25T08:43:25.941Z,101.97
2022-09-25T08:46:12.661Z,100.37
2022-09-25T08:49:07.052Z,102.63
2022-09-25T08:51:37.991Z,104.53
2022-09-25T08:54:07.081Z,112.00
2022-09-25T08:56:36.470Z,98.67
2022-09-25T08:59:09.796Z,105.67
2022-09-25T09:01:44.347Z,98.43
2022-09-25T09:04:20.204Z,144.50
2022-09-25T09:07:08.110Z,104.53
2022-09-25T09:09:41.976Z,100.73
2022-09-25T09:12:13.348Z,98.93
2022-09-25T09:14:45.584Z,94.53
2022-09-25T09:17:18.240Z,99.67
2022-09-25T09:19:53.587Z,98.70
2022-09-25T09:22:26.505Z,98.43
2022-09-25T09:25:03.075Z,102.63
2022-09-25T09:28:14.193Z,103.83
2022-09-25T09:30:48.388Z,98.20
2022-09-25T09:33:23.620Z,99.00
2022-09-25T09:36:02.321Z,100.03
2022-09-25T09:38:39.435Z,104.10
2022-09-25T09:41:15.620Z,98.17
2022-09-25T09:43:56.475Z,100.07
2022-09-25T09:46:34.054Z,98.23
2022-09-25T09:49:07.951Z,94.83
2022-09-25T09:51:41.324Z,94.37
2022-09-25T09:54:14.630Z,93.17
2022-09-25T09:56:44.164Z,99.53
2022-09-25T09:59:16.593Z,97.67
2022-09-25T10:01:45.785Z,96.00
2022-09-25T10:04:17.005Z,100.97
2022-09-25T10:06:49.510Z,100.33
2022-09-25T10:09:18.115Z,93.70
2022-09-25T10:11:47.531Z,96.07
2022-09-25T10:14:20.271Z,91.67
2022-09-25T10:16:48.879Z,88.50
2022-09-25T10:19:20.025Z,97.60
2022-09-25T10:21:52.276Z,93.83
2022-09-25T10:24:51.765Z,94.30
2022-09-25T10:27:31.421Z,92.67
2022-09-25T10:30:04.217Z,91.20
2022-09-25T10:32:33.855Z,92.60
2022-09-25T10:35:02.212Z,92.87
2022-09-25T10:37:35.662Z,88.20
2022-09-25T10:40:05.585Z,93.30
2022-09-25T10:42:39.184Z,90.90
2022-09-25T10:45:31.090Z,91.13
2022-09-25T10:48:16.998Z,93.10
2022-09-25T10:50:45.276Z,91.10
2022-09-25T10:53:30.412Z,91.23
2022-09-25T10:56:02.799Z,88.90
2022-09-25T10:58:35.894Z,89.00
2022-09-25T11:01:06.109Z,85.30
2022-09-25T11:03:59.625Z,91.70
2022-09-25T11:06:29.337Z,91.03
2022-09-25T11:09:09.090Z,86.47
2022-09-25T11:11:39.272Z,87.60
2022-09-25T11:14:09.578Z,90.50
2022-09-25T11:16:48.838Z,90.27
2022-09-25T11:19:29.095Z,88.23
2022-09-25T11:22:02.812Z,90.47
2022-09-25T11:24:42.717Z,90.60
2022-09-25T11:27:13.041Z,88.20
2022-09-25T11:29:46.243Z,88.10
2022-09-25T11:32:21.097Z,87.67
2022-09-25T11:35:05.314Z,91.43
2022-09-25T11:37:39.479Z,90.07
2022-09-25T11:40:39.950Z,84.77
2022-09-25T11:43:09.662Z,89.13
2022-09-25T11:45:40.509Z,85.90
2022-09-25T11:48:14.317Z,83.90
2022-09-25T11:50:47.963Z,84.93
2022-09-25T11:53:24.478Z,86.97
2022-09-25T11:56:03.116Z,84.67
2022-09-25T11:59:09.311Z,86.07
2022-09-25T12:01:41.564Z,84.93
2022-09-25T12:04:24.674Z,85.20
2022-09-25T12:07:17.666Z,84.53
2022-09-25T12:09:58.011Z,82.80
2022-09-25T12:12:34.278Z,81.30
2022-09-25T12:15:09.541Z,80.63
2022-09-25T12:17:43.331Z,83.47
2022-09-25T12:20:18.538Z,82.10
2022-09-25T12:22:51.932Z,79.93
2022-09-25T12:25:32.951Z,82.60
2022-09-25T12:28:08.734Z,81.30
2022-09-25T12:30:42.185Z,80.27
2022-09-25T12:33:18.753Z,78.90
2022-09-25T12:37:02.581Z,77.90
2022-09-25T12:39:33.932Z,78.50
2022-09-25T12:42:07.654Z,79.07
2022-09-25T12:44:43.747Z,75.70
2022-09-25T12:47:18.125Z,75.90
2022-09-25T12:49:49.527Z,74.00
2022-09-25T12:52:21.434Z,77.70
2022-09-25T12:59:05.902Z,76.33
2022-09-25T13:01:42.276Z,72.87
2022-09-25T13:04:19.638Z,77.57
2022-09-25T13:06:51.210Z,74.77
2022-09-25T13:09:25.922Z,72.87
2022-09-25T13:18:20.713Z,72.67
2022-09-25T13:20:52.527Z,71.97
2022-09-25T13:23:32.475Z,72.47
2022-09-25T13:26:03.526Z,71.90
2022-09-25T13:28:57.701Z,73.10
2022-09-25T13:32:40.471Z,71.40
2022-09-25T13:35:19.766Z,72.30
2022-09-25T13:37:50.963Z,72.83
2022-09-25T13:40:38.918Z,72.37
2022-09-25T13:43:22.791Z,72.60
2022-09-25T13:46:24.187Z,73.93
2022-09-25T13:54:06.024Z,77.57
2022-09-25T13:56:48.467Z,76.57
2022-09-25T13:59:37.468Z,74.30
2022-09-25T14:02:34.054Z,74.20
2022-09-25T14:05:02.252Z,73.43
2022-09-25T14:07:30.718Z,75.90
2022-09-25T14:10:02.225Z,76.27
2022-09-25T14:17:13.622Z,77.80
2022-09-25T14:19:45.127Z,75.10
2022-09-25T14:22:25.006Z,75.17
2022-09-25T14:24:56.194Z,75.93
2022-09-25T14:27:28.248Z,74.67
2022-09-25T14:30:08.368Z,71.67
2022-09-25T14:32:55.949Z,74.00
2022-09-25T14:35:36.453Z,89.53
2022-09-25T14:38:23.268Z,75.67
2022-09-25T14:41:04.317Z,77.97
2022-09-25T14:43:47.563Z,74.30
2022-09-25T14:46:19.939Z,75.37
2022-09-25T14:48:50.728Z,74.80
2022-09-25T14:51:25.604Z,74.47
2022-09-25T14:53:56.442Z,75.57
2022-09-25T14:56:24.868Z,72.57
2022-09-25T14:58:57.831Z,72.83
2022-09-25T15:06:44.413Z,73.37
2022-09-25T15:19:37.371Z,71.97
2022-09-25T15:22:10.816Z,76.50
2022-09-25T15:29:50.976Z,76.77
2022-09-25T15:36:27.080Z,73.20
2022-09-25T15:39:45.922Z,72.17
2022-09-25T15:42:15.022Z,72.07
2022-09-25T15:44:43.416Z,72.37
2022-09-25T15:47:49.940Z,72.50
2022-09-25T15:50:23.874Z,70.30
2022-09-25T15:52:55.917Z,72.60
2022-09-25T15:55:24.487Z,70.50
2022-09-25T15:59:08.577Z,70.90
2022-09-25T16:06:14.303Z,70.37
2022-09-25T16:13:55.422Z,69.17
2022-09-25T16:16:26.909Z,69.20
2022-09-25T16:19:30.125Z,70.17
2022-09-25T16:22:00.260Z,69.47
2022-09-25T16:24:29.861Z,70.70
2022-09-25T16:26:59.986Z,70.33
2022-09-25T16:29:30.422Z,71.10
2022-09-25T16:32:02.417Z,72.97
2022-09-25T16:34:31.893Z,74.53
2022-09-25T16:37:03.126Z,73.60
2022-09-25T16:39:33.175Z,72.90
2022-09-25T16:42:30.911Z,74.20
2022-09-25T16:45:06.192Z,80.13
2022-09-25T16:57:17.235Z,72.33
2022-09-25T16:59:45.570Z,69.87
2022-09-25T17:02:28.003Z,68.57
2022-09-25T17:04:56.985Z,70.20
2022-09-25T17:07:25.300Z,77.57
2022-09-25T17:09:54.423Z,72.73
2022-09-25T17:12:24.485Z,73.17
2022-09-25T17:19:45.788Z,69.70
2022-09-25T17:22:14.397Z,73.70
2022-09-25T17:24:42.723Z,70.37
2022-09-25T17:27:36.463Z,72.63
2022-09-25T17:30:04.784Z,72.90
2022-09-25T17:32:33.063Z,70.70
2022-09-25T17:35:02.681Z,70.07
2022-09-25T17:37:30.712Z,75.30
2022-09-25T17:39:59.204Z,73.43
2022-09-25T17:42:27.743Z,72.57
2022-09-25T17:44:57.497Z,72.10
2022-09-25T17:47:25.527Z,71.87
2022-09-25T17:49:53.495Z,70.63
2022-09-25T17:52:22.835Z,73.00
2022-09-25T17:54:50.815Z,70.67
2022-09-25T17:57:18.812Z,70.97
2022-09-25T17:59:47.000Z,72.83
2022-09-25T18:02:17.394Z,71.63
2022-09-25T18:04:45.844Z,72.47
2022-09-25T18:07:15.319Z,74.27
2022-09-25T18:09:44.763Z,71.07
2022-09-25T18:12:12.701Z,71.83
2022-09-25T18:14:40.648Z,71.17
2022-09-25T18:17:08.643Z,69.90
2022-09-25T18:19:54.263Z,70.97
2022-09-25T18:22:25.389Z,70.47
2022-09-25T18:24:56.699Z,69.67
2022-09-25T18:27:25.807Z,72.60
2022-09-25T18:29:53.831Z,70.57
2022-09-25T18:32:22.195Z,73.97
2022-09-25T18:34:50.083Z,73.40
2022-09-25T18:37:18.056Z,72.63
2022-09-25T18:39:47.832Z,72.00
2022-09-25T18:42:17.132Z,72.40
2022-09-25T18:44:45.059Z,72.53
2022-09-25T18:47:13.196Z,70.70
2022-09-25T18:49:41.204Z,71.87
2022-09-25T18:52:09.171Z,72.93
2022-09-25T18:54:37.240Z,74.30
2022-09-25T18:57:05.178Z,73.07
2022-09-25T18:59:34.470Z,71.67
2022-09-25T19:02:03.637Z,70.93
2022-09-25T19:04:31.822Z,72.17
2022-09-25T19:06:59.825Z,74.17
2022-09-25T19:09:28.318Z,72.70
2022-09-25T19:11:56.303Z,71.47
2022-09-25T19:14:24.473Z,72.93
2022-09-25T19:16:53.749Z,71.87
2022-09-25T19:19:22.160Z,73.27
2022-09-25T19:21:50.131Z,72.90
2022-09-25T19:24:18.708Z,72.40
2022-09-25T19:26:48.073Z,71.67
2022-09-25T19:29:16.161Z,71.00
2022-09-25T19:31:44.306Z,74.37
2022-09-25T19:34:13.763Z,72.67
2022-09-25T19:36:41.940Z,70.83
2022-09-25T19:39:10.020Z,72.70
2022-09-25T19:41:40.828Z,74.70
2022-09-25T19:44:13.259Z,74.53
2022-09-25T19:46:44.064Z,71.57
2022-09-25T19:49:14.787Z,71.60
2022-09-25T19:51:43.190Z,71.80
2022-09-25T19:54:14.050Z,77.33
2022-09-25T19:56:42.878Z,74.10
2022-09-25T19:59:14.058Z,76.13
2022-09-25T20:01:42.905Z,72.97
2022-09-25T20:04:15.737Z,73.30
2022-09-25T20:06:48.610Z,74.13
2022-09-25T20:09:17.801Z,73.50
2022-09-25T20:11:46.097Z,71.73
2022-09-25T20:14:14.225Z,72.00
2022-09-25T20:16:42.363Z,72.37
2022-09-25T20:19:11.611Z,74.40
2022-09-25T20:21:41.454Z,71.90
2022-09-25T20:24:11.181Z,72.40
2022-09-25T20:26:39.517Z,73.67
2022-09-25T20:29:09.655Z,73.80
2022-09-25T20:31:38.526Z,71.83
2022-09-25T20:34:06.855Z,71.50
2022-09-25T20:36:39.079Z,73.80
2022-09-25T20:39:07.299Z,74.23
2022-09-25T20:41:36.908Z,72.40
2022-09-25T20:44:05.904Z,74.17
2022-09-25T20:46:34.579Z,74.97
2022-09-25T20:49:03.558Z,72.47
2022-09-25T20:51:35.077Z,74.30
2022-09-25T20:54:04.681Z,73.50
2022-09-25T20:56:33.933Z,75.30
2022-09-25T20:59:03.704Z,72.70
2022-09-25T21:01:34.624Z,72.80
2022-09-25T21:04:04.308Z,74.70
2022-09-25T21:06:34.264Z,73.63
2022-09-25T21:09:03.921Z,73.60
2022-09-25T21:11:33.394Z,73.17
2022-09-25T21:14:03.653Z,74.30
2022-09-25T21:16:33.321Z,75.50
2022-09-25T21:19:04.320Z,72.47
2022-09-25T21:21:33.184Z,74.37
2022-09-25T21:24:02.399Z,72.37
2022-09-25T21:26:31.649Z,74.40
2022-09-25T21:29:01.374Z,72.70
2022-09-25T21:31:32.622Z,71.60
2022-09-25T21:34:00.992Z,73.33
2022-09-25T21:36:29.946Z,73.30
2022-09-25T21:38:57.946Z,73.60
2022-09-25T21:41:26.879Z,73.10
2022-09-25T21:43:56.185Z,74.17
2022-09-25T21:46:24.572Z,74.90
2022-09-25T21:48:55.845Z,75.77
2022-09-25T21:51:26.812Z,70.47
2022-09-25T21:53:55.311Z,76.17
2022-09-25T21:56:25.395Z,72.60
2022-09-25T21:58:54.692Z,72.80
2022-09-25T22:01:24.824Z,72.20
2022-09-25T22:03:55.996Z,72.80
2022-09-25T22:06:26.332Z,72.47
2022-09-25T22:08:56.527Z,71.30
2022-09-25T22:11:24.756Z,72.37
2022-09-25T22:13:53.062Z,73.70
2022-09-25T22:16:23.753Z,73.40
2022-09-25T22:18:56.186Z,74.60
2022-09-25T22:21:25.909Z,73.37
2022-09-25T22:23:54.108Z,72.67
2022-09-25T22:26:22.715Z,71.87
2022-09-25T22:28:51.063Z,74.60
2022-09-25T22:31:22.813Z,71.87
2022-09-25T22:33:56.727Z,75.37
2022-09-25T22:36:25.325Z,76.93
2022-09-25T22:38:53.201Z,77.97
2022-09-25T22:41:21.750Z,71.37
2022-09-25T22:43:51.442Z,73.03
2022-09-25T22:46:20.122Z,73.70
2022-09-25T22:48:48.176Z,74.27
2022-09-25T22:51:19.820Z,73.10
2022-09-25T22:53:48.171Z,73.37
2022-09-25T22:56:18.241Z,74.47
2022-09-25T22:58:47.838Z,72.77
2022-09-25T23:01:17.761Z,73.50
2022-09-25T23:03:45.830Z,75.30
2022-09-25T23:06:14.046Z,72.57
2022-09-25T23:08:43.299Z,74.67
2022-09-25T23:11:11.209Z,74.10
2022-09-25T23:13:39.155Z,75.70
2022-09-25T23:16:08.631Z,71.97
2022-09-25T23:18:37.441Z,72.80
2022-09-25T23:21:05.871Z,73.43
2022-09-25T23:23:33.845Z,72.90
2022-09-25T23:26:06.237Z,75.17
2022-09-25T23:28:34.996Z,73.30
2022-09-25T23:31:10.803Z,73.17
2022-09-25T23:33:39.615Z,71.90
2022-09-25T23:36:09.707Z,70.80
2022-09-25T23:38:38.305Z,71.37
2022-09-25T23:41:15.911Z,73.87
2022-09-25T23:43:45.324Z,71.60
2022-09-25T23:46:13.909Z,71.30
2022-09-25T23:48:42.123Z,72.20
2022-09-25T23:51:10.148Z,71.97
2022-09-25T23:53:38.065Z,72.90
2022-09-25T23:56:08.036Z,72.97
2022-09-25T23:58:37.334Z,71.70
